sensor_id;sensor_type;location;lat;lon;timestamp;pressure;altitude;pressure_sealevel;temperature;humidity
4586;BME280;2305;50.118;8.952;2023-08-17T00:00:07;100667.88;;;20.55;100.00
4586;BME280;2305;50.118;8.952;2023-08-17T00:02:39;100670.41;;;20.57;100.00
4586;BME280;2305;50.118;8.952;2023-08-17T00:05:07;100667.06;;;20.55;100.00
4586;BME280;2305;50.118;8.952;2023-08-17T00:07:36;100666.59;;;20.51;100.00
4586;BME280;2305;50.118;8.952;2023-08-17T00:10:05;100667.78;;;20.49;100.00
4586;BME280;2305;50.118;8.952;2023-08-17T00:12:36;100671.47;;;20.48;100.00
4586;BME280;2305;50.118;8.952;2023-08-17T00:15:05;100662.34;;;20.42;100.00
4586;BME280;2305;50.118;8.952;2023-08-17T00:17:35;100657.50;;;20.38;100.00
4586;BME280;2305;50.118;8.952;2023-08-17T00:20:06;100660.38;;;20.36;100.00
4586;BME280;2305;50.118;8.952;2023-08-17T00:22:37;100672.09;;;20.35;100.00
4586;BME280;2305;50.118;8.952;2023-08-17T00:25:06;100673.75;;;20.36;100.00
4586;BME280;2305;50.118;8.952;2023-08-17T00:27:39;100675.09;;;20.32;100.00
4586;BME280;2305;50.118;8.952;2023-08-17T00:30:09;100679.66;;;20.32;100.00
4586;BME280;2305;50.118;8.952;2023-08-17T00:32:38;100675.28;;;20.31;100.00
4586;BME280;2305;50.118;8.952;2023-08-17T00:35:08;100674.09;;;20.33;100.00
4586;BME280;2305;50.118;8.952;2023-08-17T00:37:37;100679.09;;;20.36;100.00
4586;BME280;2305;50.118;8.952;2023-08-17T00:40:08;100659.19;;;20.39;100.00
4586;BME280;2305;50.118;8.952;2023-08-17T00:42:39;100669.88;;;20.39;100.00
4586;BME280;2305;50.118;8.952;2023-08-17T00:45:12;100672.09;;;20.35;100.00
4586;BME280;2305;50.118;8.952;2023-08-17T00:47:42;100663.59;;;20.32;100.00
4586;BME280;2305;50.118;8.952;2023-08-17T00:50:11;100676.50;;;20.28;100.00
4586;BME280;2305;50.118;8.952;2023-08-17T00:52:42;100681.00;;;20.28;100.00
4586;BME280;2305;50.118;8.952;2023-08-17T00:55:11;100687.38;;;20.27;100.00
4586;BME280;2305;50.118;8.952;2023-08-17T00:57:42;100676.03;;;20.25;100.00
4586;BME280;2305;50.118;8.952;2023-08-17T01:00:12;100666.50;;;20.22;100.00
4586;BME280;2305;50.118;8.952;2023-08-17T01:02:46;100668.50;;;20.20;100.00
4586;BME280;2305;50.118;8.952;2023-08-17T01:05:16;100667.03;;;20.18;100.00
4586;BME280;2305;50.118;8.952;2023-08-17T01:07:47;100660.00;;;20.17;100.00
4586;BME280;2305;50.118;8.952;2023-08-17T01:10:18;100655.47;;;20.17;100.00
4586;BME280;2305;50.118;8.952;2023-08-17T01:12:52;100665.34;;;20.17;100.00
4586;BME280;2305;50.118;8.952;2023-08-17T01:15:27;100654.00;;;20.15;100.00
4586;BME280;2305;50.118;8.952;2023-08-17T01:18:14;100656.34;;;20.10;100.00
4586;BME280;2305;50.118;8.952;2023-08-17T01:20:45;100650.19;;;20.09;100.00
4586;BME280;2305;50.118;8.952;2023-08-17T01:23:15;100658.38;;;20.08;100.00
4586;BME280;2305;50.118;8.952;2023-08-17T01:25:45;100650.19;;;20.09;100.00
4586;BME280;2305;50.118;8.952;2023-08-17T01:28:16;100633.50;;;20.07;100.00
4586;BME280;2305;50.118;8.952;2023-08-17T01:30:53;100641.81;;;20.04;100.00
4586;BME280;2305;50.118;8.952;2023-08-17T01:33:28;100636.47;;;20.04;100.00
4586;BME280;2305;50.118;8.952;2023-08-17T01:36:06;100633.31;;;20.01;100.00
4586;BME280;2305;50.118;8.952;2023-08-17T01:38:45;100641.50;;;19.99;100.00
4586;BME280;2305;50.118;8.952;2023-08-17T01:41:22;100634.88;;;19.95;100.00
4586;BME280;2305;50.118;8.952;2023-08-17T01:43:51;100634.69;;;19.97;100.00
4586;BME280;2305;50.118;8.952;2023-08-17T01:46:21;100637.53;;;19.95;100.00
4586;BME280;2305;50.118;8.952;2023-08-17T01:48:50;100649.91;;;19.96;100.00
4586;BME280;2305;50.118;8.952;2023-08-17T01:51:20;100643.44;;;19.91;100.00
4586;BME280;2305;50.118;8.952;2023-08-17T01:53:53;100641.28;;;19.86;100.00
4586;BME280;2305;50.118;8.952;2023-08-17T01:56:22;100642.28;;;19.85;100.00
4586;BME280;2305;50.118;8.952;2023-08-17T01:58:50;100640.59;;;19.84;100.00
4586;BME280;2305;50.118;8.952;2023-08-17T02:01:22;100641.81;;;19.82;100.00
4586;BME280;2305;50.118;8.952;2023-08-17T02:03:51;100635.16;;;19.78;100.00
4586;BME280;2305;50.118;8.952;2023-08-17T02:06:20;100634.84;;;19.73;100.00
4586;BME280;2305;50.118;8.952;2023-08-17T02:08:49;100643.06;;;19.71;100.00
4586;BME280;2305;50.118;8.952;2023-08-17T02:11:18;100636.84;;;19.71;100.00
4586;BME280;2305;50.118;8.952;2023-08-17T02:13:47;100648.41;;;19.71;100.00
4586;BME280;2305;50.118;8.952;2023-08-17T02:16:16;100645.72;;;19.71;100.00
4586;BME280;2305;50.118;8.952;2023-08-17T02:18:46;100641.84;;;19.74;100.00
4586;BME280;2305;50.118;8.952;2023-08-17T02:21:15;100640.88;;;19.75;100.00
4586;BME280;2305;50.118;8.952;2023-08-17T02:23:43;100645.38;;;19.74;100.00
4586;BME280;2305;50.118;8.952;2023-08-17T02:26:13;100639.38;;;19.72;100.00
4586;BME280;2305;50.118;8.952;2023-08-17T02:28:43;100640.19;;;19.73;100.00
4586;BME280;2305;50.118;8.952;2023-08-17T02:31:12;100641.19;;;19.72;100.00
4586;BME280;2305;50.118;8.952;2023-08-17T02:33:42;100640.66;;;19.76;100.00
4586;BME280;2305;50.118;8.952;2023-08-17T02:36:10;100631.94;;;19.82;100.00
4586;BME280;2305;50.118;8.952;2023-08-17T02:38:39;100630.41;;;19.88;100.00
4586;BME280;2305;50.118;8.952;2023-08-17T02:41:07;100640.75;;;19.91;100.00
4586;BME280;2305;50.118;8.952;2023-08-17T02:43:37;100639.56;;;19.93;100.00
4586;BME280;2305;50.118;8.952;2023-08-17T02:46:10;100635.03;;;19.94;100.00
4586;BME280;2305;50.118;8.952;2023-08-17T02:48:39;100626.69;;;19.97;100.00
4586;BME280;2305;50.118;8.952;2023-08-17T02:51:11;100626.47;;;19.98;100.00
4586;BME280;2305;50.118;8.952;2023-08-17T02:53:40;100623.81;;;19.98;100.00
4586;BME280;2305;50.118;8.952;2023-08-17T02:56:08;100628.63;;;20.03;100.00
4586;BME280;2305;50.118;8.952;2023-08-17T02:58:38;100628.81;;;20.01;100.00
4586;BME280;2305;50.118;8.952;2023-08-17T03:01:09;100623.47;;;20.01;100.00
4586;BME280;2305;50.118;8.952;2023-08-17T03:03:38;100624.47;;;20.00;100.00
4586;BME280;2305;50.118;8.952;2023-08-17T03:06:11;100621.97;;;19.99;100.00
4586;BME280;2305;50.118;8.952;2023-08-17T03:08:39;100617.44;;;19.99;100.00
4586;BME280;2305;50.118;8.952;2023-08-17T03:11:10;100621.13;;;19.98;100.00
4586;BME280;2305;50.118;8.952;2023-08-17T03:13:42;100616.44;;;20.00;100.00
4586;BME280;2305;50.118;8.952;2023-08-17T03:16:17;100621.59;;;20.02;100.00
4586;BME280;2305;50.118;8.952;2023-08-17T03:18:48;100618.13;;;20.01;100.00
4586;BME280;2305;50.118;8.952;2023-08-17T03:21:18;100619.59;;;20.04;100.00
4586;BME280;2305;50.118;8.952;2023-08-17T03:23:47;100618.94;;;20.02;100.00
4586;BME280;2305;50.118;8.952;2023-08-17T03:26:18;100616.75;;;20.05;100.00
4586;BME280;2305;50.118;8.952;2023-08-17T03:28:49;100612.09;;;20.07;100.00
4586;BME280;2305;50.118;8.952;2023-08-17T03:31:21;100621.09;;;20.06;100.00
4586;BME280;2305;50.118;8.952;2023-08-17T03:33:50;100626.28;;;20.08;100.00
4586;BME280;2305;50.118;8.952;2023-08-17T03:36:19;100626.66;;;20.05;100.00
4586;BME280;2305;50.118;8.952;2023-08-17T03:38:50;100623.47;;;20.01;100.00
4586;BME280;2305;50.118;8.952;2023-08-17T03:41:18;100624.16;;;19.95;100.00
4586;BME280;2305;50.118;8.952;2023-08-17T03:43:48;100620.00;;;19.93;100.00
4586;BME280;2305;50.118;8.952;2023-08-17T03:46:17;100628.41;;;19.90;100.00
4586;BME280;2305;50.118;8.952;2023-08-17T03:48:47;100634.94;;;19.87;100.00
4586;BME280;2305;50.118;8.952;2023-08-17T03:51:16;100628.72;;;19.87;100.00
4586;BME280;2305;50.118;8.952;2023-08-17T03:53:44;100633.28;;;19.86;100.00
4586;BME280;2305;50.118;8.952;2023-08-17T03:56:13;100635.56;;;19.89;100.00
4586;BME280;2305;50.118;8.952;2023-08-17T03:58:41;100639.25;;;19.88;100.00
4586;BME280;2305;50.118;8.952;2023-08-17T04:01:12;100637.06;;;19.92;100.00
4586;BME280;2305;50.118;8.952;2023-08-17T04:03:42;100633.22;;;19.94;100.00
4586;BME280;2305;50.118;8.952;2023-08-17T04:06:12;100633.00;;;19.96;100.00
4586;BME280;2305;50.118;8.952;2023-08-17T04:08:44;100639.22;;;19.96;100.00
4586;BME280;2305;50.118;8.952;2023-08-17T04:11:15;100637.53;;;19.95;100.00
4586;BME280;2305;50.118;8.952;2023-08-17T04:13:43;100641.88;;;19.96;100.00
4586;BME280;2305;50.118;8.952;2023-08-17T04:16:11;100641.72;;;19.98;100.00
4586;BME280;2305;50.118;8.952;2023-08-17T04:18:39;100650.38;;;20.00;100.00
4586;BME280;2305;50.118;8.952;2023-08-17T04:21:11;100647.41;;;19.95;100.00
4586;BME280;2305;50.118;8.952;2023-08-17T04:23:40;100650.91;;;19.95;100.00
4586;BME280;2305;50.118;8.952;2023-08-17T04:26:09;100659.75;;;19.96;100.00
4586;BME280;2305;50.118;8.952;2023-08-17T04:28:37;100653.59;;;19.95;100.00
4586;BME280;2305;50.118;8.952;2023-08-17T04:31:06;100659.97;;;19.94;100.00
4586;BME280;2305;50.118;8.952;2023-08-17T04:33:40;100662.63;;;19.94;100.00
4586;BME280;2305;50.118;8.952;2023-08-17T04:36:08;100664.28;;;19.95;100.00
4586;BME280;2305;50.118;8.952;2023-08-17T04:38:38;100661.25;;;20.29;100.00
4586;BME280;2305;50.118;8.952;2023-08-17T04:41:07;100654.00;;;20.37;100.00
4586;BME280;2305;50.118;8.952;2023-08-17T04:43:36;100667.31;;;20.23;100.00
4586;BME280;2305;50.118;8.952;2023-08-17T04:46:05;100678.63;;;20.10;100.00
4586;BME280;2305;50.118;8.952;2023-08-17T04:48:36;100676.94;;;20.09;100.00
4586;BME280;2305;50.118;8.952;2023-08-17T04:51:05;100668.91;;;20.09;100.00
4586;BME280;2305;50.118;8.952;2023-08-17T04:53:35;100672.25;;;20.11;100.00
4586;BME280;2305;50.118;8.952;2023-08-17T04:56:06;100667.75;;;20.12;100.00
4586;BME280;2305;50.118;8.952;2023-08-17T04:58:35;100668.03;;;20.17;100.00
4586;BME280;2305;50.118;8.952;2023-08-17T05:01:03;100664.53;;;20.16;100.00
4586;BME280;2305;50.118;8.952;2023-08-17T05:03:32;100669.50;;;20.19;100.00
4586;BME280;2305;50.118;8.952;2023-08-17T05:06:03;100666.50;;;20.22;100.00
4586;BME280;2305;50.118;8.952;2023-08-17T05:08:33;100669.81;;;20.24;100.00
4586;BME280;2305;50.118;8.952;2023-08-17T05:11:02;100671.97;;;20.29;100.00
4586;BME280;2305;50.118;8.952;2023-08-17T05:13:32;100676.28;;;20.30;100.00
4586;BME280;2305;50.118;8.952;2023-08-17T05:16:03;100679.44;;;20.33;100.00
4586;BME280;2305;50.118;8.952;2023-08-17T05:18:32;100684.47;;;20.36;100.00
4586;BME280;2305;50.118;8.952;2023-08-17T05:21:04;100687.25;;;20.43;100.00
4586;BME280;2305;50.118;8.952;2023-08-17T05:23:32;100692.69;;;20.49;100.00
4586;BME280;2305;50.118;8.952;2023-08-17T05:26:02;100697.88;;;20.51;100.00
4586;BME280;2305;50.118;8.952;2023-08-17T05:28:32;100693.00;;;20.54;100.00
4586;BME280;2305;50.118;8.952;2023-08-17T05:31:04;100686.47;;;20.57;100.00
4586;BME280;2305;50.118;8.952;2023-08-17T05:33:36;100690.97;;;20.56;100.00
4586;BME280;2305;50.118;8.952;2023-08-17T05:36:07;100689.63;;;20.60;100.00
4586;BME280;2305;50.118;8.952;2023-08-17T05:38:36;100690.38;;;20.69;100.00
4586;BME280;2305;50.118;8.952;2023-08-17T05:41:05;100692.38;;;20.67;100.00
4586;BME280;2305;50.118;8.952;2023-08-17T05:43:35;100690.72;;;20.66;100.00
4586;BME280;2305;50.118;8.952;2023-08-17T05:46:04;100690.56;;;20.67;100.00
4586;BME280;2305;50.118;8.952;2023-08-17T05:48:35;100688.53;;;20.69;100.00
4586;BME280;2305;50.118;8.952;2023-08-17T05:51:08;100690.00;;;20.72;100.00
4586;BME280;2305;50.118;8.952;2023-08-17T05:53:36;100687.97;;;20.74;100.00
4586;BME280;2305;50.118;8.952;2023-08-17T05:56:05;100694.56;;;20.71;100.00
4586;BME280;2305;50.118;8.952;2023-08-17T05:58:33;100693.81;;;20.77;100.00
4586;BME280;2305;50.118;8.952;2023-08-17T06:01:10;100688.81;;;20.74;100.00
4586;BME280;2305;50.118;8.952;2023-08-17T06:03:39;100691.50;;;20.74;100.00
4586;BME280;2305;50.118;8.952;2023-08-17T06:06:07;100693.47;;;20.80;100.00
4586;BME280;2305;50.118;8.952;2023-08-17T06:08:36;100705.16;;;20.87;100.00
4586;BME280;2305;50.118;8.952;2023-08-17T06:11:04;100700.91;;;20.93;100.00
4586;BME280;2305;50.118;8.952;2023-08-17T06:13:35;100702.47;;;21.02;100.00
4586;BME280;2305;50.118;8.952;2023-08-17T06:16:07;100701.09;;;21.06;100.00
4586;BME280;2305;50.118;8.952;2023-08-17T06:18:38;100702.78;;;21.07;100.00
4586;BME280;2305;50.118;8.952;2023-08-17T06:21:07;100706.47;;;21.06;100.00
4586;BME280;2305;50.118;8.952;2023-08-17T06:23:36;100699.91;;;21.08;100.00
4586;BME280;2305;50.118;8.952;2023-08-17T06:26:05;100701.19;;;21.12;100.00
4586;BME280;2305;50.118;8.952;2023-08-17T06:28:36;100696.13;;;21.17;100.00
4586;BME280;2305;50.118;8.952;2023-08-17T06:31:04;100689.09;;;21.31;100.00
4586;BME280;2305;50.118;8.952;2023-08-17T06:33:34;100694.00;;;21.27;100.00
4586;BME280;2305;50.118;8.952;2023-08-17T06:36:03;100692.63;;;21.31;100.00
4586;BME280;2305;50.118;8.952;2023-08-17T06:38:33;100692.06;;;21.36;100.00
4586;BME280;2305;50.118;8.952;2023-08-17T06:41:03;100696.50;;;21.43;100.00
4586;BME280;2305;50.118;8.952;2023-08-17T06:43:48;100698.63;;;21.48;100.00
4586;BME280;2305;50.118;8.952;2023-08-17T06:46:16;100696.59;;;21.50;100.00
4586;BME280;2305;50.118;8.952;2023-08-17T06:48:50;100694.09;;;21.48;100.00
4586;BME280;2305;50.118;8.952;2023-08-17T06:51:21;100692.31;;;21.55;100.00
4586;BME280;2305;50.118;8.952;2023-08-17T06:53:50;100689.94;;;21.60;100.00
4586;BME280;2305;50.118;8.952;2023-08-17T06:56:29;100690.94;;;21.59;100.00
4586;BME280;2305;50.118;8.952;2023-08-17T06:58:57;100697.63;;;21.63;100.00
4586;BME280;2305;50.118;8.952;2023-08-17T07:01:25;100699.75;;;21.68;100.00
4586;BME280;2305;50.118;8.952;2023-08-17T07:03:55;100705.22;;;21.74;100.00
4586;BME280;2305;50.118;8.952;2023-08-17T07:06:31;100705.09;;;21.82;100.00
4586;BME280;2305;50.118;8.952;2023-08-17T07:09:04;100704.84;;;22.13;100.00
4586;BME280;2305;50.118;8.952;2023-08-17T07:11:33;100703.50;;;22.23;100.00
4586;BME280;2305;50.118;8.952;2023-08-17T07:14:06;100703.34;;;22.25;100.00
4586;BME280;2305;50.118;8.952;2023-08-17T07:16:38;100705.00;;;22.26;100.00
4586;BME280;2305;50.118;8.952;2023-08-17T07:19:07;100706.00;;;22.04;100.00
4586;BME280;2305;50.118;8.952;2023-08-17T07:21:35;100696.28;;;22.03;100.00
4586;BME280;2305;50.118;8.952;2023-08-17T07:24:14;100700.97;;;22.01;100.00
4586;BME280;2305;50.118;8.952;2023-08-17T07:26:42;100696.72;;;22.06;100.00
4586;BME280;2305;50.118;8.952;2023-08-17T07:29:11;100701.31;;;22.12;100.00
4586;BME280;2305;50.118;8.952;2023-08-17T07:31:42;100702.56;;;22.10;100.00
4586;BME280;2305;50.118;8.952;2023-08-17T07:34:12;100716.97;;;22.09;100.00
4586;BME280;2305;50.118;8.952;2023-08-17T07:36:41;100717.19;;;22.07;100.00
4586;BME280;2305;50.118;8.952;2023-08-17T07:39:09;100718.91;;;22.15;100.00
4586;BME280;2305;50.118;8.952;2023-08-17T07:41:40;100719.47;;;22.10;100.00
4586;BME280;2305;50.118;8.952;2023-08-17T07:44:08;100723.19;;;22.09;100.00
4586;BME280;2305;50.118;8.952;2023-08-17T07:46:38;100725.22;;;22.07;100.00
4586;BME280;2305;50.118;8.952;2023-08-17T07:49:09;100722.53;;;22.07;100.00
4586;BME280;2305;50.118;8.952;2023-08-17T07:51:57;100717.25;;;22.14;100.00
4586;BME280;2305;50.118;8.952;2023-08-17T07:54:26;100723.97;;;22.24;100.00
4586;BME280;2305;50.118;8.952;2023-08-17T07:56:57;100722.81;;;22.33;100.00
4586;BME280;2305;50.118;8.952;2023-08-17T07:59:25;100725.13;;;22.36;100.00
4586;BME280;2305;50.118;8.952;2023-08-17T08:01:57;100727.44;;;22.39;100.00
4586;BME280;2305;50.118;8.952;2023-08-17T08:04:27;100732.94;;;22.46;100.00
4586;BME280;2305;50.118;8.952;2023-08-17T08:06:57;100721.47;;;22.58;100.00
4586;BME280;2305;50.118;8.952;2023-08-17T08:09:27;100725.22;;;22.64;100.00
4586;BME280;2305;50.118;8.952;2023-08-17T08:11:56;100723.63;;;22.69;100.00
4586;BME280;2305;50.118;8.952;2023-08-17T08:14:24;100727.41;;;22.75;100.00
4586;BME280;2305;50.118;8.952;2023-08-17T08:16:53;100727.19;;;22.76;100.00
4586;BME280;2305;50.118;8.952;2023-08-17T08:19:24;100726.38;;;22.76;100.00
4586;BME280;2305;50.118;8.952;2023-08-17T08:21:54;100727.09;;;22.84;100.00
4586;BME280;2305;50.118;8.952;2023-08-17T08:24:27;100721.94;;;22.89;100.00
4586;BME280;2305;50.118;8.952;2023-08-17T08:27:04;100713.88;;;22.89;100.00
4586;BME280;2305;50.118;8.952;2023-08-17T08:29:33;100710.41;;;22.95;100.00
4586;BME280;2305;50.118;8.952;2023-08-17T08:32:02;100711.72;;;23.06;100.00
4586;BME280;2305;50.118;8.952;2023-08-17T08:34:30;100709.66;;;23.29;100.00
4586;BME280;2305;50.118;8.952;2023-08-17T08:36:58;100707.13;;;23.21;100.00
4586;BME280;2305;50.118;8.952;2023-08-17T08:39:28;100698.50;;;23.32;100.00
4586;BME280;2305;50.118;8.952;2023-08-17T08:41:56;100703.91;;;23.38;100.00
4586;BME280;2305;50.118;8.952;2023-08-17T08:44:27;100704.59;;;23.47;100.00
4586;BME280;2305;50.118;8.952;2023-08-17T08:46:57;100709.19;;;23.53;100.00
4586;BME280;2305;50.118;8.952;2023-08-17T08:49:28;100705.91;;;23.64;100.00
4586;BME280;2305;50.118;8.952;2023-08-17T08:51:58;100714.84;;;23.64;100.00
4586;BME280;2305;50.118;8.952;2023-08-17T08:54:30;100719.38;;;23.64;100.00
4586;BME280;2305;50.118;8.952;2023-08-17T08:57:06;100721.09;;;23.71;100.00
4586;BME280;2305;50.118;8.952;2023-08-17T08:59:37;100724.22;;;23.81;100.00
4586;BME280;2305;50.118;8.952;2023-08-17T09:02:14;100723.91;;;23.97;100.00
4586;BME280;2305;50.118;8.952;2023-08-17T09:04:44;100718.97;;;24.07;100.00
4586;BME280;2305;50.118;8.952;2023-08-17T09:07:13;100716.53;;;24.19;100.00
4586;BME280;2305;50.118;8.952;2023-08-17T09:09:44;100712.66;;;24.34;100.00
4586;BME280;2305;50.118;8.952;2023-08-17T09:12:13;100708.94;;;24.48;100.00
4586;BME280;2305;50.118;8.952;2023-08-17T09:14:58;100705.47;;;24.60;100.00
4586;BME280;2305;50.118;8.952;2023-08-17T09:17:32;100709.19;;;24.79;100.00
4586;BME280;2305;50.118;8.952;2023-08-17T09:20:01;100701.72;;;24.94;100.00
4586;BME280;2305;50.118;8.952;2023-08-17T09:22:37;100702.13;;;25.04;100.00
4586;BME280;2305;50.118;8.952;2023-08-17T09:25:08;100706.91;;;25.08;100.00
4586;BME280;2305;50.118;8.952;2023-08-17T09:27:40;100703.38;;;25.08;100.00
4586;BME280;2305;50.118;8.952;2023-08-17T09:30:11;100703.38;;;25.01;100.00
4586;BME280;2305;50.118;8.952;2023-08-17T09:32:47;100701.09;;;24.92;100.00
4586;BME280;2305;50.118;8.952;2023-08-17T09:35:17;100709.41;;;24.84;100.00
4586;BME280;2305;50.118;8.952;2023-08-17T09:37:49;100699.22;;;24.73;100.00
4586;BME280;2305;50.118;8.952;2023-08-17T09:40:19;100701.28;;;24.64;100.00
4586;BME280;2305;50.118;8.952;2023-08-17T09:42:48;100703.13;;;24.51;100.00
4586;BME280;2305;50.118;8.952;2023-08-17T09:45:17;100695.88;;;24.51;100.00
4586;BME280;2305;50.118;8.952;2023-08-17T09:47:45;100697.56;;;24.59;100.00
4586;BME280;2305;50.118;8.952;2023-08-17T09:50:14;100698.19;;;24.74;100.00
4586;BME280;2305;50.118;8.952;2023-08-17T09:52:42;100694.25;;;24.89;100.00
4586;BME280;2305;50.118;8.952;2023-08-17T09:55:11;100699.84;;;25.07;100.00
4586;BME280;2305;50.118;8.952;2023-08-17T09:57:47;100697.78;;;25.22;100.00
4586;BME280;2305;50.118;8.952;2023-08-17T10:00:19;100696.09;;;25.15;100.00
4586;BME280;2305;50.118;8.952;2023-08-17T10:02:50;100694.66;;;24.99;100.00
4586;BME280;2305;50.118;8.952;2023-08-17T10:05:20;100688.25;;;24.94;100.00
4586;BME280;2305;50.118;8.952;2023-08-17T10:07:57;100695.28;;;24.95;100.00
4586;BME280;2305;50.118;8.952;2023-08-17T10:10:34;100688.25;;;24.87;100.00
4586;BME280;2305;50.118;8.952;2023-08-17T10:13:09;100680.16;;;24.74;100.00
4586;BME280;2305;50.118;8.952;2023-08-17T10:15:42;100678.72;;;24.72;100.00
4586;BME280;2305;50.118;8.952;2023-08-17T10:18:17;100674.97;;;24.73;100.00
4586;BME280;2305;50.118;8.952;2023-08-17T10:20:58;100671.25;;;24.80;100.00
4586;BME280;2305;50.118;8.952;2023-08-17T10:23:29;100662.75;;;24.90;100.00
4586;BME280;2305;50.118;8.952;2023-08-17T10:26:03;100667.47;;;25.01;100.00
4586;BME280;2305;50.118;8.952;2023-08-17T10:28:34;100662.69;;;25.03;100.00
4586;BME280;2305;50.118;8.952;2023-08-17T10:31:05;100661.47;;;25.12;100.00
4586;BME280;2305;50.118;8.952;2023-08-17T10:33:37;100657.31;;;25.22;100.00
4586;BME280;2305;50.118;8.952;2023-08-17T10:36:10;100657.09;;;25.24;100.00
4586;BME280;2305;50.118;8.952;2023-08-17T10:38:42;100659.38;;;25.27;100.00
4586;BME280;2305;50.118;8.952;2023-08-17T10:41:13;100662.06;;;25.33;100.00
4586;BME280;2305;50.118;8.952;2023-08-17T10:43:56;100657.50;;;25.34;100.00
4586;BME280;2305;50.118;8.952;2023-08-17T10:46:33;100657.66;;;25.39;100.00
4586;BME280;2305;50.118;8.952;2023-08-17T10:49:04;100662.41;;;25.50;100.00
4586;BME280;2305;50.118;8.952;2023-08-17T10:51:34;100663.22;;;25.57;100.00
4586;BME280;2305;50.118;8.952;2023-08-17T10:54:13;100656.94;;;25.69;100.00
4586;BME280;2305;50.118;8.952;2023-08-17T10:56:41;100661.53;;;25.69;100.00
4586;BME280;2305;50.118;8.952;2023-08-17T10:59:33;100653.75;;;25.85;100.00
4586;BME280;2305;50.118;8.952;2023-08-17T11:02:04;100648.97;;;25.87;100.00
4586;BME280;2305;50.118;8.952;2023-08-17T11:04:39;100655.63;;;25.91;100.00
4586;BME280;2305;50.118;8.952;2023-08-17T11:07:13;100653.31;;;25.95;100.00
4586;BME280;2305;50.118;8.952;2023-08-17T11:09:43;100648.97;;;25.94;100.00
4586;BME280;2305;50.118;8.952;2023-08-17T11:12:25;100642.03;;;26.04;100.00
4586;BME280;2305;50.118;8.952;2023-08-17T11:15:05;100635.16;;;26.08;100.00
4586;BME280;2305;50.118;8.952;2023-08-17T11:17:35;100637.41;;;26.18;100.00
4586;BME280;2305;50.118;8.952;2023-08-17T11:20:04;100637.34;;;26.24;100.00
4586;BME280;2305;50.118;8.952;2023-08-17T11:22:33;100641.88;;;26.30;100.00
4586;BME280;2305;50.118;8.952;2023-08-17T11:25:01;100646.41;;;26.36;100.00
4586;BME280;2305;50.118;8.952;2023-08-17T11:27:30;100645.38;;;26.37;100.00
4586;BME280;2305;50.118;8.952;2023-08-17T11:30:06;100649.06;;;26.43;100.00
4586;BME280;2305;50.118;8.952;2023-08-17T11:32:38;100643.19;;;26.46;100.00
4586;BME280;2305;50.118;8.952;2023-08-17T11:35:10;100647.13;;;26.50;100.00
4586;BME280;2305;50.118;8.952;2023-08-17T11:37:39;100646.88;;;26.58;100.00
4586;BME280;2305;50.118;8.952;2023-08-17T11:40:09;100649.56;;;26.64;100.00
4586;BME280;2305;50.118;8.952;2023-08-17T11:42:42;100650.94;;;26.73;100.00
4586;BME280;2305;50.118;8.952;2023-08-17T11:45:12;100644.00;;;26.77;100.00
4586;BME280;2305;50.118;8.952;2023-08-17T11:47:43;100647.06;;;26.87;100.00
4586;BME280;2305;50.118;8.952;2023-08-17T11:50:13;100639.06;;;26.92;100.00
4586;BME280;2305;50.118;8.952;2023-08-17T11:52:51;100632.41;;;26.95;100.00
4586;BME280;2305;50.118;8.952;2023-08-17T11:55:19;100639.50;;;27.14;100.00
4586;BME280;2305;50.118;8.952;2023-08-17T11:57:48;100626.97;;;27.19;100.00
4586;BME280;2305;50.118;8.952;2023-08-17T12:00:20;100629.72;;;27.13;100.00
4586;BME280;2305;50.118;8.952;2023-08-17T12:02:52;100633.81;;;27.22;100.00
4586;BME280;2305;50.118;8.952;2023-08-17T12:05:24;100632.81;;;27.34;100.00
4586;BME280;2305;50.118;8.952;2023-08-17T12:07:54;100630.06;;;27.41;100.00
4586;BME280;2305;50.118;8.952;2023-08-17T12:10:27;100614.56;;;27.48;100.00
4586;BME280;2305;50.118;8.952;2023-08-17T12:12:58;100611.69;;;27.61;100.00
4586;BME280;2305;50.118;8.952;2023-08-17T12:15:32;100612.81;;;27.71;100.00
4586;BME280;2305;50.118;8.952;2023-08-17T12:18:03;100611.47;;;27.80;100.00
4586;BME280;2305;50.118;8.952;2023-08-17T12:20:32;100607.94;;;27.91;100.00
4586;BME280;2305;50.118;8.952;2023-08-17T12:23:03;100615.41;;;27.96;100.00
4586;BME280;2305;50.118;8.952;2023-08-17T12:25:35;100613.19;;;28.04;100.00
4586;BME280;2305;50.118;8.952;2023-08-17T12:28:06;100605.69;;;28.18;100.00
4586;BME280;2305;50.118;8.952;2023-08-17T12:30:41;100597.84;;;28.39;100.00
4586;BME280;2305;50.118;8.952;2023-08-17T12:33:11;100600.50;;;28.69;100.00
4586;BME280;2305;50.118;8.952;2023-08-17T12:35:39;100602.97;;;28.93;100.00
4586;BME280;2305;50.118;8.952;2023-08-17T12:38:07;100596.00;;;28.97;100.00
4586;BME280;2305;50.118;8.952;2023-08-17T12:40:36;100611.00;;;29.00;100.00
4586;BME280;2305;50.118;8.952;2023-08-17T12:43:05;100604.84;;;29.04;100.00
4586;BME280;2305;50.118;8.952;2023-08-17T12:45:42;100609.00;;;29.07;100.00
4586;BME280;2305;50.118;8.952;2023-08-17T12:48:10;100619.97;;;29.12;100.00
4586;BME280;2305;50.118;8.952;2023-08-17T12:50:39;100623.38;;;29.19;100.00
4586;BME280;2305;50.118;8.952;2023-08-17T12:53:13;100627.03;;;29.24;100.00
4586;BME280;2305;50.118;8.952;2023-08-17T12:55:42;100633.16;;;29.31;100.00
4586;BME280;2305;50.118;8.952;2023-08-17T12:58:13;100618.84;;;29.36;100.00
4586;BME280;2305;50.118;8.952;2023-08-17T13:00:47;100621.56;;;29.36;100.00
4586;BME280;2305;50.118;8.952;2023-08-17T13:03:26;100622.75;;;29.51;100.00
4586;BME280;2305;50.118;8.952;2023-08-17T13:05:57;100625.09;;;29.59;100.00
4586;BME280;2305;50.118;8.952;2023-08-17T13:08:28;100622.72;;;29.63;100.00
4586;BME280;2305;50.118;8.952;2023-08-17T13:11:00;100621.75;;;29.69;100.00
4586;BME280;2305;50.118;8.952;2023-08-17T13:13:32;100621.72;;;29.80;100.00
4586;BME280;2305;50.118;8.952;2023-08-17T13:16:22;100617.88;;;29.93;100.00
4586;BME280;2305;50.118;8.952;2023-08-17T13:18:52;100617.41;;;29.96;100.00